ウシュアイア の空港の天気 - METARとTAF

ウシュアイア空港 ( SAWH / USH ) - アルゼンチン ティエラ・デル・フエゴ州、ウシュアイア
飛行場実況気象(Metar)
観測時間08/25 16:00 ART (08/25 19:00 UTC)
風向・風速北 2m/s
視程10km以上
天気現象
なし
気温8℃
湿度53%
気圧1004hPa
METARSAWH 251900Z 36004KT CAVOK 08/M01 Q1004
過去の天気等 Google飛行場航空写真 Wunderground天気予報

過去48時間のMETAR

飛行場予報(TAF)
発表時間: 8/25 14:00 ART (8/25 17:00 UTC)
予報対象時間: 25日15時 ART ~ 26日15時 ART
風向・風速不定 2m/s
視程10km以上
なし
25日18時 ART ~ 25日20時 ART に徐々に
風向・風速北 8m/s
26日5時 ART ~ 26日7時 ART に徐々に
風向・風速北 10m/s 瞬間風速 15m/s
視程4000m
天気現象雨もや
全天の8割程度の雲 雲底高度 30m
全天を覆う雲 雲底高度 610m
TAF SAWH 251700Z 2518/2618 VRB03KT CAVOK TX08/2518Z TN00/2611Z
BECMG 2521/2523 36015KT
BECMG 2608/2610 36020G30KT 4000 RABR BKN001 OVC020